Time;durP1;ratioP1;P1;durP2;ratioP2;P2;SDS_P1;SDS_P2;PMS_P1;PMS_P2;Temp;Humidity;BMP_temperature;BMP_pressure;BME280_temperature;BME280_humidity;BME280_pressure;Samples;Min_cycle;Max_cycle;Signal;HPM_P1;HPM_P2
2023/07/18 00:02:05;;;;;;;4.30;3.00;;;26.80;42.70;;;;;;5033646;28;20415;-67
2023/07/18 00:04:31;;;;;;;2.97;2.70;;;26.80;42.70;;;;;;5032046;28;20183;-67
2023/07/18 00:06:57;;;;;;;2.97;2.60;;;26.70;42.60;;;;;;5033428;28;20433;-67
2023/07/18 00:09:22;;;;;;;3.90;2.23;;;26.80;42.70;;;;;;5033620;28;20172;-67
2023/07/18 00:11:48;;;;;;;4.03;2.67;;;26.70;42.60;;;;;;5033876;28;20263;-68
2023/07/18 00:14:16;;;;;;;4.63;2.90;;;26.80;42.70;;;;;;5033921;28;20176;-67
2023/07/18 00:16:44;;;;;;;4.70;2.10;;;26.80;42.70;;;;;;5032663;28;20175;-67
2023/07/18 00:19:12;;;;;;;3.40;2.70;;;26.70;42.60;;;;;;5036274;28;20423;-67
2023/07/18 00:21:40;;;;;;;3.57;2.80;;;26.70;42.70;;;;;;5037516;28;20406;-67
2023/07/18 00:24:06;;;;;;;2.60;2.40;;;26.70;42.70;;;;;;5037438;28;20424;-67
2023/07/18 00:26:32;;;;;;;3.33;2.50;;;26.70;42.80;;;;;;5035793;28;20432;-67
2023/07/18 00:28:58;;;;;;;3.10;2.60;;;26.70;43.30;;;;;;5037313;28;20462;-67
2023/07/18 00:31:23;;;;;;;3.60;2.73;;;26.70;42.80;;;;;;5036896;28;20183;-67
2023/07/18 00:33:49;;;;;;;3.10;2.80;;;26.70;42.80;;;;;;5037322;28;20200;-67
2023/07/18 00:36:14;;;;;;;3.60;2.77;;;26.70;42.80;;;;;;5037020;28;20266;-67
2023/07/18 00:38:40;;;;;;;2.90;2.50;;;26.70;42.80;;;;;;5035806;28;20210;-67
2023/07/18 00:41:08;;;;;;;4.53;2.90;;;26.70;42.80;;;;;;5037330;28;20168;-67
2023/07/18 00:43:33;;;;;;;3.47;2.60;;;26.70;42.90;;;;;;5036003;28;20243;-67
2023/07/18 00:46:00;;;;;;;3.13;2.83;;;26.70;42.90;;;;;;5036963;28;20502;-67
2023/07/18 00:48:31;;;;;;;3.97;2.93;;;26.70;42.90;;;;;;5036740;28;20754;-67
2023/07/18 00:50:58;;;;;;;3.70;3.20;;;26.70;42.90;;;;;;5036747;28;20410;-67
2023/07/18 00:53:24;;;;;;;2.60;2.37;;;26.70;42.90;;;;;;5037111;28;20465;-67
2023/07/18 00:55:50;;;;;;;3.60;2.70;;;26.70;42.90;;;;;;5036693;28;20980;-67
2023/07/18 00:58:17;;;;;;;3.50;2.73;;;26.70;42.90;;;;;;5036593;28;20187;-67
2023/07/18 01:00:42;;;;;;;3.80;2.90;;;26.60;42.90;;;;;;5036490;28;20407;-67
2023/07/18 01:03:08;;;;;;;3.80;2.70;;;26.70;43.50;;;;;;5036622;28;20869;-66
2023/07/18 01:05:33;;;;;;;3.87;2.73;;;26.70;42.90;;;;;;5036854;28;20187;-67
2023/07/18 01:08:00;;;;;;;3.70;3.03;;;26.70;42.90;;;;;;5035125;28;20206;-67
2023/07/18 01:10:27;;;;;;;3.23;2.50;;;26.70;42.90;;;;;;5036815;28;20164;-67
2023/07/18 01:12:58;;;;;;;3.03;2.40;;;26.70;43.00;;;;;;5036556;28;20553;-67
2023/07/18 01:15:25;;;;;;;3.50;2.50;;;26.70;43.00;;;;;;5036164;28;20463;-67
2023/07/18 01:17:50;;;;;;;3.03;2.60;;;26.70;43.00;;;;;;5036102;28;21002;-67
2023/07/18 01:20:22;;;;;;;3.13;2.70;;;26.60;42.90;;;;;;5035832;28;20414;-67
2023/07/18 01:22:55;;;;;;;2.50;2.30;;;26.60;43.00;;;;;;5036531;28;20798;-67
2023/07/18 01:25:21;;;;;;;3.43;2.70;;;26.70;43.10;;;;;;5036763;28;20398;-67
2023/07/18 01:27:48;;;;;;;3.73;2.47;;;26.60;43.00;;;;;;5036055;28;20434;-67
2023/07/18 01:30:16;;;;;;;3.67;3.23;;;26.60;43.00;;;;;;5035913;28;20407;-67
2023/07/18 01:32:42;;;;;;;2.47;2.27;;;26.60;43.00;;;;;;5036198;28;20504;-67
2023/07/18 01:35:08;;;;;;;3.00;2.53;;;26.60;43.00;;;;;;5036246;28;20754;-67
2023/07/18 01:37:36;;;;;;;3.40;2.67;;;26.60;43.00;;;;;;5036457;28;20724;-67
2023/07/18 01:40:04;;;;;;;4.07;2.90;;;26.60;43.00;;;;;;5036186;28;20415;-67
2023/07/18 01:42:30;;;;;;;4.23;2.90;;;26.60;43.00;;;;;;5034461;28;20423;-68
2023/07/18 01:44:56;;;;;;;4.50;2.83;;;26.60;43.00;;;;;;5035720;28;20410;-67
2023/07/18 01:47:22;;;;;;;2.93;2.30;;;26.60;43.00;;;;;;5035572;28;20215;-67
2023/07/18 01:49:47;;;;;;;2.93;2.60;;;26.60;43.10;;;;;;5035307;28;20195;-68
2023/07/18 01:52:13;;;;;;;2.70;2.40;;;26.60;43.10;;;;;;5035660;28;20205;-67
2023/07/18 01:54:39;;;;;;;2.90;2.57;;;26.60;43.10;;;;;;5035798;28;20211;-67
2023/07/18 01:57:05;;;;;;;3.30;2.40;;;26.60;43.10;;;;;;5035808;28;20544;-67
2023/07/18 01:59:31;;;;;;;4.60;2.80;;;26.60;43.10;;;;;;5035379;28;20234;-67
2023/07/18 02:01:57;;;;;;;3.30;3.00;;;26.60;43.20;;;;;;5035307;28;20422;-67
2023/07/18 02:04:22;;;;;;;3.50;2.87;;;26.60;43.20;;;;;;5035375;28;20410;-67
2023/07/18 02:06:48;;;;;;;3.40;2.43;;;26.60;43.20;;;;;;5034319;28;20263;-67
2023/07/18 02:09:13;;;;;;;2.80;2.30;;;26.60;43.20;;;;;;5035449;28;20210;-67
2023/07/18 02:11:39;;;;;;;3.10;2.33;;;26.60;43.30;;;;;;5035977;28;20179;-67
2023/07/18 02:14:05;;;;;;;2.83;2.40;;;26.60;43.30;;;;;;5035461;28;20192;-68
2023/07/18 02:16:31;;;;;;;3.50;2.60;;;26.60;43.30;;;;;;5035075;28;20174;-67
2023/07/18 02:19:00;;;;;;;2.87;2.50;;;26.60;43.30;;;;;;5034678;28;20203;-67
2023/07/18 02:21:26;;;;;;;2.87;2.53;;;26.60;43.40;;;;;;5034801;28;20437;-67
2023/07/18 02:23:51;;;;;;;3.77;2.47;;;26.60;43.40;;;;;;5034921;28;20414;-67
2023/07/18 02:26:17;;;;;;;2.70;2.50;;;26.60;43.50;;;;;;5035050;28;20183;-67
2023/07/18 02:28:43;;;;;;;3.07;2.50;;;26.60;43.60;;;;;;5034738;28;20202;-67
2023/07/18 02:31:08;;;;;;;3.93;2.30;;;26.60;43.60;;;;;;5033373;28;20190;-67
2023/07/18 02:33:34;;;;;;;3.70;2.77;;;26.60;43.70;;;;;;5034574;28;20233;-67
2023/07/18 02:36:00;;;;;;;3.93;2.87;;;26.60;43.70;;;;;;5040459;28;20171;-67
2023/07/18 02:38:25;;;;;;;2.67;2.47;;;26.60;43.70;;;;;;5054694;28;20270;-67
2023/07/18 02:40:51;;;;;;;3.07;2.40;;;26.60;43.80;;;;;;5054358;28;20794;-67
2023/07/18 02:43:17;;;;;;;3.47;2.80;;;26.60;43.80;;;;;;5054449;28;20425;-67
2023/07/18 02:45:43;;;;;;;3.10;2.70;;;26.60;43.80;;;;;;5054838;28;20417;-67
2023/07/18 02:48:08;;;;;;;3.37;2.40;;;26.60;43.80;;;;;;5054462;28;20230;-67
2023/07/18 02:50:35;;;;;;;3.40;3.00;;;26.60;43.90;;;;;;5054299;28;20191;-67
2023/07/18 02:53:00;;;;;;;2.97;2.67;;;26.60;43.90;;;;;;5054340;28;20367;-67
2023/07/18 02:55:27;;;;;;;2.80;2.60;;;26.50;43.90;;;;;;5054440;28;20402;-66
2023/07/18 02:57:53;;;;;;;3.90;3.10;;;26.60;43.90;;;;;;5054060;28;20183;-67
2023/07/18 03:00:21;;;;;;;4.37;3.27;;;26.60;44.00;;;;;;5054471;28;20409;-67
2023/07/18 03:02:48;;;;;;;3.63;2.50;;;26.50;43.90;;;;;;5053934;28;20198;-67
2023/07/18 03:05:16;;;;;;;2.90;2.60;;;26.60;44.00;;;;;;5054088;28;20405;-67
2023/07/18 03:07:43;;;;;;;3.53;2.73;;;26.60;44.00;;;;;;5053957;28;20483;-67
2023/07/18 03:10:09;;;;;;;3.33;2.63;;;26.60;44.00;;;;;;5054485;28;20445;-67
2023/07/18 03:12:34;;;;;;;2.97;2.50;;;26.60;44.00;;;;;;5054432;28;20453;-67
2023/07/18 03:15:00;;;;;;;4.20;2.47;;;26.60;44.10;;;;;;5053592;28;20413;-67
2023/07/18 03:17:25;;;;;;;3.33;2.70;;;26.60;44.00;;;;;;5054408;28;20221;-68
2023/07/18 03:19:51;;;;;;;3.80;3.07;;;26.50;44.00;;;;;;5053868;28;20656;-67
2023/07/18 03:22:16;;;;;;;3.90;3.03;;;26.50;44.00;;;;;;5054086;28;20539;-67
2023/07/18 03:24:42;;;;;;;3.00;2.60;;;26.50;44.00;;;;;;5054239;28;20175;-67
2023/07/18 03:27:08;;;;;;;5.90;3.40;;;26.50;44.00;;;;;;5053736;28;20384;-67
2023/07/18 03:29:33;;;;;;;4.00;2.83;;;26.50;44.00;;;;;;5054049;28;20170;-67
2023/07/18 03:32:00;;;;;;;3.43;2.87;;;26.50;44.00;;;;;;5053774;28;20205;-67
2023/07/18 03:34:28;;;;;;;5.30;2.80;;;26.50;44.00;;;;;;5053961;28;20218;-67
2023/07/18 03:36:54;;;;;;;4.40;3.23;;;26.50;44.00;;;;;;5053612;28;20782;-67
2023/07/18 03:39:19;;;;;;;5.03;2.80;;;26.50;44.00;;;;;;5054506;28;20411;-67
2023/07/18 03:41:45;;;;;;;3.57;3.27;;;26.50;44.00;;;;;;5053597;28;20214;-67
2023/07/18 03:44:10;;;;;;;2.80;2.60;;;26.50;44.00;;;;;;5054179;28;20197;-67
2023/07/18 03:46:36;;;;;;;4.33;3.13;;;26.50;44.00;;;;;;5053879;28;20270;-67
2023/07/18 03:49:02;;;;;;;3.23;2.93;;;26.50;44.00;;;;;;5053394;28;20703;-67
2023/07/18 03:51:28;;;;;;;3.20;2.40;;;26.50;44.00;;;;;;5053691;28;20175;-67
2023/07/18 03:53:53;;;;;;;4.53;3.40;;;26.50;44.00;;;;;;5056415;28;20194;-67
2023/07/18 03:56:20;;;;;;;3.17;2.63;;;26.40;44.00;;;;;;5057763;28;20183;-67
2023/07/18 03:58:46;;;;;;;3.33;2.93;;;26.50;44.10;;;;;;5057482;28;20183;-67
2023/07/18 04:01:14;;;;;;;3.50;2.87;;;26.50;44.10;;;;;;5057940;28;20413;-67
2023/07/18 04:03:41;;;;;;;5.07;3.30;;;26.50;44.10;;;;;;5057360;28;20175;-67
2023/07/18 04:06:06;;;;;;;4.53;3.33;;;26.50;44.20;;;;;;5057594;28;20427;-67
2023/07/18 04:08:32;;;;;;;3.87;2.97;;;26.50;44.30;;;;;;5056001;28;20535;-67
2023/07/18 04:10:59;;;;;;;3.20;2.73;;;26.50;44.30;;;;;;5057954;28;20270;-67
2023/07/18 04:13:25;;;;;;;4.10;2.87;;;26.50;44.30;;;;;;5057068;28;20214;-67
2023/07/18 04:15:53;;;;;;;3.57;2.80;;;26.50;44.80;;;;;;5057685;28;20906;-67
2023/07/18 04:18:19;;;;;;;4.90;2.90;;;26.50;44.30;;;;;;5057169;28;20444;-67
2023/07/18 04:20:44;;;;;;;3.53;2.80;;;26.50;44.30;;;;;;5056918;28;20413;-67
2023/07/18 04:23:10;;;;;;;3.60;3.00;;;26.50;44.20;;;;;;5057025;28;20666;-67
2023/07/18 04:25:55;;;;;;;4.00;3.13;;;26.50;44.20;;;;;;5055612;28;20185;-67
2023/07/18 04:28:21;;;;;;;3.53;3.07;;;26.50;44.20;;;;;;5056989;28;20245;-67
2023/07/18 04:30:47;;;;;;;4.73;3.03;;;26.50;44.20;;;;;;5057063;28;20910;-67
2023/07/18 04:33:12;;;;;;;4.53;3.10;;;26.50;44.10;;;;;;5056548;28;20245;-67
2023/07/18 04:35:39;;;;;;;4.63;3.40;;;26.50;44.10;;;;;;5057230;28;20662;-68
2023/07/18 04:38:05;;;;;;;6.60;3.23;;;26.50;44.10;;;;;;5057008;28;20193;-67
2023/07/18 04:40:31;;;;;;;3.90;3.30;;;26.50;44.10;;;;;;5047701;28;20446;-67
2023/07/18 04:42:57;;;;;;;4.07;2.90;;;26.50;44.10;;;;;;5049942;28;20456;-67
2023/07/18 04:45:22;;;;;;;5.50;2.73;;;26.50;44.70;;;;;;5046171;28;20176;-67
2023/07/18 04:47:48;;;;;;;2.33;2.10;;;26.50;44.10;;;;;;5045257;28;20211;-67
2023/07/18 04:50:15;;;;;;;2.73;2.53;;;26.50;44.10;;;;;;5046666;28;20572;-67
2023/07/18 04:52:40;;;;;;;2.93;2.63;;;26.50;44.10;;;;;;5043754;28;20668;-67
2023/07/18 04:55:06;;;;;;;4.70;3.20;;;26.60;44.20;;;;;;5040950;28;20418;-67
2023/07/18 04:57:32;;;;;;;3.10;2.53;;;26.60;44.20;;;;;;5036578;28;20223;-67
2023/07/18 04:59:57;;;;;;;3.90;3.17;;;26.60;44.20;;;;;;5035574;28;20230;-67
2023/07/18 05:02:23;;;;;;;4.13;3.13;;;26.60;44.20;;;;;;5036211;28;20183;-67
2023/07/18 05:04:48;;;;;;;2.90;2.60;;;26.60;44.20;;;;;;5035066;28;20186;-67
2023/07/18 05:07:14;;;;;;;3.97;2.90;;;26.60;44.20;;;;;;5036344;28;20672;-67
2023/07/18 05:09:40;;;;;;;5.73;3.47;;;26.60;44.20;;;;;;5036112;28;20171;-67
2023/07/18 05:12:06;;;;;;;3.20;2.90;;;26.60;44.20;;;;;;5035328;28;20418;-67
2023/07/18 05:14:32;;;;;;;3.17;2.87;;;26.60;44.20;;;;;;5035127;28;20586;-67
2023/07/18 05:16:58;;;;;;;3.63;2.90;;;26.60;44.20;;;;;;5035570;28;20402;-67
2023/07/18 05:19:24;;;;;;;3.33;2.80;;;26.60;44.30;;;;;;5035325;28;20175;-67
2023/07/18 05:21:50;;;;;;;3.30;2.67;;;26.60;44.30;;;;;;5035244;28;20314;-67
2023/07/18 05:24:16;;;;;;;5.10;2.83;;;26.60;44.30;;;;;;5035168;28;20429;-67
2023/07/18 05:26:42;;;;;;;3.30;2.80;;;26.60;44.30;;;;;;5035014;28;20497;-67
2023/07/18 05:29:07;;;;;;;3.23;2.70;;;26.60;44.30;;;;;;5034687;28;20426;-67
2023/07/18 05:31:33;;;;;;;2.90;2.50;;;26.60;44.30;;;;;;5034880;28;20420;-67
2023/07/18 05:33:59;;;;;;;3.70;2.93;;;26.60;44.30;;;;;;5035088;28;20191;-67
2023/07/18 05:36:25;;;;;;;4.00;3.00;;;26.60;44.30;;;;;;5035157;28;20250;-67
2023/07/18 05:38:51;;;;;;;4.00;3.60;;;26.60;44.20;;;;;;5034778;28;20266;-67
2023/07/18 05:41:16;;;;;;;4.20;3.10;;;26.60;44.30;;;;;;5034753;28;20839;-66
2023/07/18 05:43:42;;;;;;;3.27;2.80;;;26.60;44.30;;;;;;5034505;28;20610;-68
2023/07/18 05:46:09;;;;;;;4.13;3.20;;;26.60;44.20;;;;;;5034815;28;20171;-67
2023/07/18 05:48:34;;;;;;;3.47;3.17;;;26.60;44.30;;;;;;5034423;28;20202;-67
2023/07/18 05:51:01;;;;;;;2.93;2.63;;;26.60;44.30;;;;;;5034766;28;20402;-66
2023/07/18 05:53:26;;;;;;;3.10;2.80;;;26.70;44.30;;;;;;5034420;28;20689;-67
2023/07/18 05:55:52;;;;;;;6.10;3.10;;;26.70;44.30;;;;;;5034387;28;20407;-67
2023/07/18 05:58:18;;;;;;;4.00;2.90;;;26.60;44.30;;;;;;5034704;28;20207;-67
2023/07/18 06:00:44;;;;;;;5.13;3.20;;;26.70;44.30;;;;;;5034641;28;20213;-67
2023/07/18 06:03:09;;;;;;;4.10;3.00;;;26.70;44.30;;;;;;5034484;28;20411;-67
2023/07/18 06:05:35;;;;;;;3.20;2.90;;;26.70;44.30;;;;;;5034285;28;20175;-67
2023/07/18 06:08:00;;;;;;;3.67;3.30;;;26.70;44.30;;;;;;5034356;28;20665;-67
2023/07/18 06:10:26;;;;;;;3.67;2.80;;;26.70;44.30;;;;;;5034322;28;20180;-66
2023/07/18 06:12:52;;;;;;;3.70;2.77;;;26.70;44.30;;;;;;5034317;28;20560;-67
2023/07/18 06:15:18;;;;;;;4.93;3.30;;;26.70;44.30;;;;;;5034076;28;20782;-67
2023/07/18 06:17:44;;;;;;;3.17;2.67;;;26.70;44.30;;;;;;5035083;28;20195;-67
2023/07/18 06:20:13;;;;;;;3.73;3.17;;;26.70;44.50;;;;;;5036656;28;20407;-67
2023/07/18 06:22:39;;;;;;;3.90;2.53;;;26.70;44.60;;;;;;5036487;28;20195;-66
2023/07/18 06:25:06;;;;;;;4.63;3.30;;;26.70;44.70;;;;;;5035036;28;20509;-70
2023/07/18 06:27:31;;;;;;;3.37;2.93;;;26.70;44.60;;;;;;5036039;28;20445;-66
2023/07/18 06:29:58;;;;;;;4.53;3.63;;;26.60;44.50;;;;;;5037123;28;20418;-67
2023/07/18 06:32:24;;;;;;;3.60;3.20;;;26.70;44.50;;;;;;5035366;28;20283;-67
2023/07/18 06:34:50;;;;;;;4.60;3.37;;;26.70;44.60;;;;;;5035524;28;20884;-67
2023/07/18 06:37:15;;;;;;;4.40;3.00;;;26.70;44.50;;;;;;5034487;28;20195;-67
2023/07/18 06:39:41;;;;;;;3.30;2.80;;;26.60;44.40;;;;;;5034547;28;20179;-67
2023/07/18 06:42:10;;;;;;;4.07;2.83;;;26.70;44.40;;;;;;5033979;28;20641;-67
2023/07/18 06:44:36;;;;;;;2.43;2.23;;;26.70;44.50;;;;;;5034128;28;20698;-67
2023/07/18 06:47:03;;;;;;;5.87;2.63;;;26.70;44.60;;;;;;5034002;28;20492;-66
2023/07/18 06:49:28;;;;;;;4.37;3.57;;;26.70;44.60;;;;;;5032294;28;20199;-69
2023/07/18 06:51:54;;;;;;;3.70;3.27;;;26.60;44.70;;;;;;5034153;28;20421;-69
2023/07/18 06:54:20;;;;;;;4.07;3.00;;;26.70;44.50;;;;;;5034427;28;20180;-69
2023/07/18 06:56:46;;;;;;;4.77;3.00;;;26.70;44.40;;;;;;5034910;28;20231;-69
2023/07/18 06:59:13;;;;;;;2.93;2.70;;;26.70;44.60;;;;;;5033937;28;21084;-67
2023/07/18 07:01:39;;;;;;;3.27;2.77;;;26.70;44.60;;;;;;5034363;28;20233;-70
2023/07/18 07:04:05;;;;;;;3.43;3.13;;;26.70;44.70;;;;;;5034272;28;20410;-69
2023/07/18 07:06:31;;;;;;;3.07;2.60;;;26.70;44.40;;;;;;5034946;28;20538;-69
2023/07/18 07:08:56;;;;;;;4.30;2.80;;;26.70;44.30;;;;;;5034970;28;20701;-67
2023/07/18 07:11:22;;;;;;;3.50;2.60;;;26.70;44.40;;;;;;5034510;28;20456;-67
2023/07/18 07:13:48;;;;;;;4.43;2.60;;;26.70;44.40;;;;;;5033328;28;20203;-67
2023/07/18 07:16:14;;;;;;;4.37;3.00;;;26.70;44.40;;;;;;5034699;28;20707;-67
2023/07/18 07:18:39;;;;;;;4.03;3.30;;;26.70;44.60;;;;;;5034169;28;20433;-69
2023/07/18 07:21:06;;;;;;;4.50;2.77;;;26.70;44.50;;;;;;5034241;28;20172;-67
2023/07/18 07:23:31;;;;;;;3.80;2.90;;;26.70;44.50;;;;;;5032659;28;20175;-67
2023/07/18 07:25:58;;;;;;;3.00;2.20;;;26.70;44.40;;;;;;5033323;28;20468;-67
2023/07/18 07:28:23;;;;;;;3.53;2.70;;;26.70;44.40;;;;;;5033568;28;20289;-67
2023/07/18 07:30:51;;;;;;;3.60;2.57;;;26.70;44.30;;;;;;5034293;28;20465;-66
2023/07/18 07:33:16;;;;;;;2.73;2.53;;;26.70;44.00;;;;;;5034346;28;20458;-67
2023/07/18 07:35:43;;;;;;;2.77;2.17;;;26.70;44.30;;;;;;5034655;28;20452;-67
2023/07/18 07:38:09;;;;;;;3.33;2.87;;;26.70;44.30;;;;;;5032526;28;20195;-67
2023/07/18 07:40:35;;;;;;;4.70;3.33;;;26.70;44.00;;;;;;5034041;28;20402;-67
2023/07/18 07:43:00;;;;;;;2.67;2.27;;;26.70;44.40;;;;;;5033813;28;20477;-67
2023/07/18 07:45:26;;;;;;;4.10;2.63;;;26.70;44.40;;;;;;5035069;28;20205;-67
2023/07/18 07:47:51;;;;;;;3.70;2.50;;;26.70;44.10;;;;;;5033578;28;20199;-67
2023/07/18 07:50:17;;;;;;;3.37;2.37;;;26.70;44.20;;;;;;5034307;28;20188;-70
2023/07/18 07:52:43;;;;;;;3.57;2.30;;;26.70;44.20;;;;;;5034161;28;20203;-67
2023/07/18 07:55:11;;;;;;;3.17;2.50;;;26.70;44.00;;;;;;5034008;28;20549;-67
2023/07/18 07:57:37;;;;;;;2.10;1.90;;;26.70;43.70;;;;;;5034471;28;20188;-67
2023/07/18 08:00:03;;;;;;;4.43;2.63;;;26.70;43.70;;;;;;5034182;28;20854;-67
2023/07/18 08:02:29;;;;;;;5.37;2.97;;;26.70;43.40;;;;;;5034096;28;20191;-66
2023/07/18 08:04:54;;;;;;;3.80;2.57;;;26.70;44.00;;;;;;5034519;28;20786;-67
2023/07/18 08:07:20;;;;;;;2.63;2.30;;;26.70;44.20;;;;;;5034155;28;20204;-67
2023/07/18 08:09:46;;;;;;;4.00;2.77;;;26.70;44.20;;;;;;5035014;28;20188;-66
2023/07/18 08:12:12;;;;;;;3.47;2.40;;;26.70;43.70;;;;;;5034751;28;20695;-67
2023/07/18 08:14:38;;;;;;;3.27;2.50;;;26.70;43.80;;;;;;5034331;28;20603;-66
2023/07/18 08:17:05;;;;;;;2.90;2.33;;;26.70;43.70;;;;;;5034554;28;20413;-69
2023/07/18 08:19:34;;;;;;;5.40;2.50;;;26.70;44.00;;;;;;5034926;28;20915;-67
2023/07/18 08:22:00;;;;;;;5.17;2.00;;;26.70;44.20;;;;;;5035204;28;20414;-67
2023/07/18 08:24:26;;;;;;;2.70;2.10;;;26.70;44.20;;;;;;5033846;28;20421;-67
2023/07/18 08:26:51;;;;;;;3.30;1.70;;;26.70;44.10;;;;;;5032990;28;20406;-67
2023/07/18 08:29:17;;;;;;;3.13;2.07;;;26.80;44.40;;;;;;5032769;28;20191;-67
2023/07/18 08:31:43;;;;;;;3.10;2.43;;;26.80;43.90;;;;;;5032990;28;20179;-66
2023/07/18 08:34:09;;;;;;;2.50;2.30;;;26.70;44.10;;;;;;5032733;28;20298;-67
2023/07/18 08:36:35;;;;;;;2.67;2.30;;;26.70;43.30;;;;;;5033488;28;20171;-67
2023/07/18 08:39:02;;;;;;;2.90;2.60;;;26.70;42.90;;;;;;5034833;28;20282;-67
2023/07/18 08:41:28;;;;;;;2.03;1.83;;;26.70;42.50;;;;;;5036551;28;20464;-67
2023/07/18 08:43:54;;;;;;;2.53;2.23;;;26.70;42.50;;;;;;5036652;28;20402;-68
2023/07/18 08:46:20;;;;;;;3.40;2.20;;;26.70;43.10;;;;;;5036892;28;20407;-68
2023/07/18 08:48:47;;;;;;;3.70;3.00;;;26.70;43.20;;;;;;5036286;28;20453;-68
2023/07/18 08:51:14;;;;;;;3.53;2.30;;;26.70;41.90;;;;;;5036798;28;20172;-68
2023/07/18 08:53:40;;;;;;;3.40;2.00;;;26.70;42.30;;;;;;5035406;28;20462;-67
2023/07/18 08:56:09;;;;;;;3.97;2.67;;;26.70;42.20;;;;;;5036935;28;20413;-68
2023/07/18 08:58:38;;;;;;;2.33;2.00;;;26.70;42.20;;;;;;5036565;28;20427;-67
2023/07/18 09:01:05;;;;;;;2.87;2.10;;;26.70;43.00;;;;;;5036953;28;20414;-68
2023/07/18 09:03:31;;;;;;;2.43;2.07;;;26.70;43.00;;;;;;5036700;28;20410;-68
2023/07/18 09:06:00;;;;;;;4.33;2.37;;;26.70;43.00;;;;;;5036137;28;20910;-67
2023/07/18 09:08:26;;;;;;;2.37;2.00;;;26.70;42.60;;;;;;5036767;28;20188;-68
2023/07/18 09:11:02;;;;;;;3.40;2.37;;;26.70;43.10;;;;;;5036469;28;20508;-67
2023/07/18 09:13:27;;;;;;;3.73;2.47;;;26.70;42.90;;;;;;5035465;28;20199;-68
2023/07/18 09:15:53;;;;;;;5.67;2.50;;;26.70;43.00;;;;;;5036233;28;20413;-68
2023/07/18 09:18:18;;;;;;;2.47;1.80;;;26.70;42.90;;;;;;5035492;28;20196;-68
2023/07/18 09:20:44;;;;;;;2.60;2.07;;;26.70;43.00;;;;;;5035192;28;20640;-68
2023/07/18 09:23:13;;;;;;;3.33;2.10;;;26.70;43.00;;;;;;5036556;28;20179;-68
2023/07/18 09:25:42;;;;;;;3.50;2.47;;;26.70;43.30;;;;;;5036039;28;20266;-68
2023/07/18 09:28:13;;;;;;;4.27;2.03;;;26.70;43.00;;;;;;5036021;28;20504;-68
2023/07/18 09:30:38;;;;;;;3.57;2.00;;;26.70;43.30;;;;;;5036196;28;20391;-68
2023/07/18 09:33:05;;;;;;;2.93;2.13;;;26.70;43.20;;;;;;5035211;28;20458;-68
2023/07/18 09:35:38;;;;;;;3.00;2.10;;;26.70;43.30;;;;;;5036367;28;20210;-68
2023/07/18 09:38:07;;;;;;;1.97;1.77;;;26.70;43.30;;;;;;5034787;28;20541;-68
2023/07/18 09:40:33;;;;;;;2.43;2.23;;;26.70;43.50;;;;;;5036334;28;20532;-68
2023/07/18 09:43:00;;;;;;;2.27;2.07;;;26.70;42.90;;;;;;5036273;28;20436;-67
2023/07/18 09:45:28;;;;;;;2.80;2.40;;;26.80;42.60;;;;;;5035763;28;20406;-67
2023/07/18 09:47:54;;;;;;;3.87;2.57;;;26.70;42.30;;;;;;5035562;28;20430;-68
2023/07/18 09:50:19;;;;;;;3.00;2.43;;;26.80;42.00;;;;;;5035491;28;20529;-68
2023/07/18 09:52:50;;;;;;;2.93;2.23;;;26.70;42.30;;;;;;5036187;28;20716;-68
2023/07/18 09:55:21;;;;;;;5.30;2.63;;;26.70;42.60;;;;;;5034558;28;20179;-68
2023/07/18 09:57:49;;;;;;;3.00;2.17;;;26.70;42.50;;;;;;5035658;28;20445;-68
2023/07/18 10:00:15;;;;;;;3.70;2.57;;;26.70;42.30;;;;;;5035544;28;20409;-68
2023/07/18 10:02:42;;;;;;;3.70;1.93;;;26.80;42.70;;;;;;5036247;28;20442;-67
2023/07/18 10:05:14;;;;;;;2.83;2.20;;;26.70;43.60;;;;;;5035921;28;20430;-66
2023/07/18 10:07:40;;;;;;;3.00;1.93;;;26.70;43.00;;;;;;5035317;28;20438;-67
2023/07/18 10:10:10;;;;;;;2.50;2.30;;;26.70;43.10;;;;;;5035600;28;20403;-67
2023/07/18 10:12:54;;;;;;;2.33;2.10;;;26.80;42.70;;;;;;5035834;28;20450;-67
2023/07/18 10:15:20;;;;;;;2.70;2.00;;;26.80;42.30;;;;;;5035160;28;20382;-67
2023/07/18 10:17:47;;;;;;;4.87;2.50;;;26.70;42.80;;;;;;5034822;28;20802;-67
2023/07/18 10:20:32;;;;;;;3.60;2.17;;;26.80;42.90;;;;;;5033773;28;20207;-67
2023/07/18 10:23:00;;;;;;;2.80;2.13;;;26.80;42.90;;;;;;5035058;28;20430;-67
2023/07/18 10:25:26;;;;;;;3.00;2.37;;;26.80;43.00;;;;;;5035267;28;20464;-67
2023/07/18 10:27:52;;;;;;;2.80;1.90;;;26.80;43.10;;;;;;5035060;28;20833;-67
2023/07/18 10:30:20;;;;;;;3.90;2.43;;;26.80;43.00;;;;;;5034873;28;20452;-68
2023/07/18 10:32:53;;;;;;;3.17;2.03;;;26.80;42.70;;;;;;5034580;28;20454;-67
2023/07/18 10:35:19;;;;;;;2.20;1.80;;;26.80;42.70;;;;;;5035128;28;20407;-67
2023/07/18 10:37:51;;;;;;;2.30;1.67;;;26.80;42.90;;;;;;5033486;28;20468;-68
2023/07/18 10:40:48;;;;;;;4.53;2.67;;;26.80;43.00;;;;;;5035201;28;20399;-67
2023/07/18 10:43:20;;;;;;;3.20;2.87;;;26.80;43.00;;;;;;5030547;28;20422;-68
2023/07/18 10:45:46;;;;;;;6.80;2.30;;;26.80;43.10;;;;;;5034906;28;20395;-67
2023/07/18 10:48:16;;;;;;;3.90;2.07;;;26.80;43.20;;;;;;5034932;28;20442;-67
2023/07/18 10:50:43;;;;;;;2.87;1.60;;;26.80;43.20;;;;;;5035357;28;20413;-67
2023/07/18 10:53:19;;;;;;;3.10;2.20;;;26.80;43.30;;;;;;5034981;28;20822;-67
2023/07/18 10:55:46;;;;;;;4.30;2.07;;;26.90;43.10;;;;;;5035294;28;20382;-67
2023/07/18 10:58:20;;;;;;;9.67;3.40;;;26.80;42.80;;;;;;5033095;28;20518;-67
2023/07/18 11:00:48;;;;;;;3.50;3.10;;;26.90;43.10;;;;;;5034309;28;20414;-66
2023/07/18 11:03:27;;;;;;;3.73;3.20;;;26.90;43.10;;;;;;5034915;28;20782;-67
2023/07/18 11:05:53;;;;;;;4.60;2.93;;;26.90;43.20;;;;;;5035402;28;20412;-67
2023/07/18 11:08:39;;;;;;;3.50;3.17;;;26.90;43.20;;;;;;5034803;28;20470;-68
2023/07/18 11:11:06;;;;;;;4.90;3.00;;;26.90;43.20;;;;;;5034055;28;20395;-67
2023/07/18 11:13:33;;;;;;;4.77;3.87;;;26.90;43.30;;;;;;5034120;28;20826;-67
2023/07/18 11:16:08;;;;;;;3.60;2.90;;;26.90;43.30;;;;;;5034072;28;20413;-67
2023/07/18 11:18:35;;;;;;;3.60;3.03;;;26.90;43.30;;;;;;5034118;28;20422;-67
2023/07/18 11:21:03;;;;;;;7.00;4.10;;;26.90;43.40;;;;;;5033672;28;20407;-67
2023/07/18 11:23:29;;;;;;;4.03;3.23;;;26.90;43.40;;;;;;5033897;28;20765;-67
2023/07/18 11:25:55;;;;;;;4.93;3.80;;;26.90;43.40;;;;;;5033830;28;20426;-67
2023/07/18 11:28:21;;;;;;;4.10;3.30;;;26.90;43.50;;;;;;5033808;28;20422;-68
2023/07/18 11:30:47;;;;;;;5.40;3.30;;;26.90;43.50;;;;;;5032500;28;20652;-67
2023/07/18 11:33:13;;;;;;;5.60;3.30;;;26.90;43.50;;;;;;5033997;28;20270;-67
2023/07/18 11:35:47;;;;;;;4.47;3.60;;;26.90;43.40;;;;;;5033616;28;20399;-67
2023/07/18 11:38:16;;;;;;;7.53;2.70;;;26.90;43.50;;;;;;5033616;28;20429;-67
2023/07/18 11:40:42;;;;;;;4.80;2.93;;;26.90;43.50;;;;;;5032475;28;20429;-67
2023/07/18 11:43:17;;;;;;;3.63;2.60;;;26.90;43.50;;;;;;5033299;28;20414;-67
2023/07/18 11:45:43;;;;;;;2.90;2.60;;;26.90;43.50;;;;;;5033340;28;20532;-68
2023/07/18 11:48:09;;;;;;;3.60;2.80;;;26.90;43.50;;;;;;5032983;28;20434;-67
2023/07/18 11:50:35;;;;;;;3.80;2.80;;;26.90;43.40;;;;;;5032874;28;20469;-67
2023/07/18 11:53:03;;;;;;;4.40;2.77;;;26.90;43.50;;;;;;5032687;28;20881;-67
2023/07/18 11:55:32;;;;;;;3.00;2.40;;;26.90;43.40;;;;;;5032690;28;20251;-67
2023/07/18 11:57:57;;;;;;;2.67;2.47;;;26.90;43.50;;;;;;5031727;28;20430;-67
2023/07/18 12:00:23;;;;;;;4.10;3.10;;;26.90;43.50;;;;;;5032438;28;20414;-67
2023/07/18 12:02:49;;;;;;;3.40;2.80;;;26.90;43.50;;;;;;5033478;28;20596;-67
2023/07/18 12:05:16;;;;;;;3.50;2.43;;;26.90;43.50;;;;;;5033233;28;20694;-67
2023/07/18 12:07:44;;;;;;;3.77;3.03;;;26.90;43.40;;;;;;5031853;28;20246;-67
2023/07/18 12:10:10;;;;;;;7.60;3.83;;;26.90;43.40;;;;;;5032418;28;20930;-67
2023/07/18 12:12:39;;;;;;;5.23;3.13;;;26.90;43.40;;;;;;5032783;28;20454;-67
2023/07/18 12:15:08;;;;;;;2.83;2.27;;;26.90;43.40;;;;;;5036323;28;20743;-67
2023/07/18 12:17:34;;;;;;;3.27;2.80;;;26.90;43.40;;;;;;5036638;28;20517;-68
2023/07/18 12:20:00;;;;;;;6.17;2.90;;;26.90;43.40;;;;;;5036710;28;20973;-67
2023/07/18 12:22:26;;;;;;;5.53;2.90;;;26.90;43.40;;;;;;5035317;28;20434;-66
2023/07/18 12:24:52;;;;;;;3.30;2.50;;;26.90;44.00;;;;;;5036598;28;20176;-67
2023/07/18 12:27:17;;;;;;;3.97;2.60;;;26.90;43.40;;;;;;5036881;28;20199;-67
2023/07/18 12:29:44;;;;;;;2.77;2.47;;;26.90;43.40;;;;;;5036697;28;20726;-67
2023/07/18 12:32:10;;;;;;;3.83;3.07;;;26.90;43.40;;;;;;5036410;28;20172;-68
2023/07/18 12:34:39;;;;;;;4.10;2.80;;;26.90;43.40;;;;;;5049898;28;20906;-67
2023/07/18 12:37:06;;;;;;;4.70;3.30;;;27.00;43.40;;;;;;5055072;28;20179;-67
2023/07/18 12:39:32;;;;;;;4.00;2.50;;;26.90;43.30;;;;;;5056873;28;20512;-67
2023/07/18 12:41:58;;;;;;;4.23;2.73;;;26.90;43.30;;;;;;5056641;28;20467;-68
2023/07/18 12:44:38;;;;;;;2.97;2.40;;;26.90;43.30;;;;;;5056232;28;20432;-67
2023/07/18 12:47:04;;;;;;;3.30;2.40;;;26.90;43.30;;;;;;5056047;28;20394;-67